Accueil
METAR-TAF:

METAR-TAF

Aéroports :

Aéroport Frans Kaisiepo

Biak, Indonésie

latitude: 01-11S, longitude: 136-07E, altitude: 11 m

Observation

Le bulletin a été fait il y a 52 minutes, à 01:00 UTC
Vent 2 kt de direction variable
Température 29°C
Humidité 79%
Pression 1010 hPa
Visibilité 10 km ou plus
Nuages épars à une hauteur de 1600 ft
Nuages fragmentés à une hauteur de 10000 ft

METAR: WABB 210100Z VRB02KT 9999 SCT016 BKN100 29/25 Q1010 NOSIG

Heure: 08:52 (01:52 UTC)

Prévision

Le bulletin a été fait il y a 2 heures et 52 minutes, à 23:00 UTC
Prévision valable du 21 à 00 UTC au 22 à 06 UTC
Vent 6 kt de est/nord-est
Visibilité 10 km ou plus
Nuages épars à une hauteur de 1600 ft
Evoluant progressivement
du 21 à 10 UTC au 21 à 12 UTC
Vent 4 kt de nord-ouest

TAF: WABB 202300Z 2100/2206 07006KT 9999 SCT016 BECMG 2110/2112 32004KT

Observations et prévisions météorologiques de plus de 4000 aéroports (messages METAR et TAF).

Les stations disponibles sont représentées par des disques jaunes et rouges sur la carte.

Passer la souris dessus pour voir le nom de la station.

Cliquer dessus pour voir les observations et prévisions météorologiques.

Pour changer de carte: cliquez sur les boutons verts avec une croix noire pour zoomer, sur le bouton vert avec un tiret pour effectuer un zoom arrière, ou sur les flèches vertes pour les cartes adjacentes.


METAR-TAF: